Etusivu
METAR-TAF:

METAR-TAF

Lentoasemat :

Växjö, Ruotsi

Leveyspiiri: 56-51N, Pituuspiiri: 014-50E, korkeus merenpinnasta: 199 m

Tämänhetkinen sää

Tämä raportti tehtiin 26 minuuttia sitten, kello 17.20 UTC
Tuuli 5 kn luoteesta
Lämpötila 0°C
Kosteus 100%
Ilmanpaine 1022 hPa
Näkyvyys: 0350 m
sumua

METAR: ESMX 271720Z AUTO 31005KT 0350 R01/1000N R19/1400N FG OVC001/// 00/00 Q1022

Aika: 18:46 (17:46 UTC)

Sääennuste

Tämä raportti tehtiin 6 tuntia ja 16 minuuttia sitten, kello 11.30 UTC
Ennuste voimassa 27. päivästä klo 12 UTC - 27. päivään klo 16 UTC
Tuuli 2 kn eri suunnista
Näkyvyys: 9000 m
Pilvistä 200 ft:n korkeudessa
Todennäköisyys 40%
27. päivästä klo 12 UTC - 27. päivään klo 16 UTC
Näkyvyys: 2000 m
utua

TAF: ESMX 271130Z 2712/2716 VRB02KT 9000 OVC002 PROB40 2712/2716 2000 BR

Säähavainnot ja -ennusteet yli 4000 lentoasemalta (METAR- ja TAF-raportit).

Käytössä olevat sääasemat on merkitty karttaan keltaisilla ja punaisilla pisteillä.

Aseta hiiri pisteen päälle nähdäksesi sääaseman nimen.

Klikkaa sitten nähdäksesi säähavainnot ja -ennusteet.

Kartan vaihtaminen: klikkaa mustalla rastilla varustettuja vihreitä pisteitä, niin voit zoomata sisään; viivalla varustettua vihreää pistettä, niin voit zoomata ulos tai vihreitä nuolia, niin pääset viereisille kartoille.


METAR-TAF: